Time;durP1;ratioP1;P1;durP2;ratioP2;P2;SDS_P1;SDS_P2;PMS_P1;PMS_P2;Temp;Humidity;BMP_temperature;BMP_pressure;BME280_temperature;BME280_humidity;BME280_pressure;Samples;Min_cycle;Max_cycle;Signal;HPM_P1;HPM_P2
2023/03/30 00:01:13;;;;;;;2.70;1.87;;;;;;;12.70;61.61;98435.88;5126943;27;42651;-81
2023/03/30 00:03:42;;;;;;;3.97;1.70;;;;;;;12.65;61.07;98432.72;5076060;28;42926;-80
2023/03/30 00:06:13;;;;;;;2.20;1.63;;;;;;;12.60;61.83;98427.78;5091644;28;42541;-83
2023/03/30 00:08:41;;;;;;;2.80;1.90;;;;;;;12.41;61.61;98404.44;5110391;28;39090;-82
2023/03/30 00:11:12;;;;;;;3.00;1.97;;;;;;;12.44;61.88;98422.81;5092810;28;41646;-81
2023/03/30 00:13:40;;;;;;;3.20;2.00;;;;;;;12.31;61.59;98406.13;5124244;27;42919;-80
2023/03/30 00:16:10;;;;;;;3.07;1.90;;;;;;;12.33;61.25;98413.97;5093424;28;43109;-82
2023/03/30 00:18:39;;;;;;;3.07;1.80;;;;;;;12.40;61.03;98431.97;5092898;28;38846;-82
2023/03/30 00:21:08;;;;;;;1.87;1.70;;;;;;;12.40;60.93;98426.66;5126753;27;42031;-82
2023/03/30 00:23:36;;;;;;;5.03;2.03;;;;;;;12.34;61.93;98416.50;5127209;27;43681;-80
2023/03/30 00:26:03;;;;;;;2.00;1.73;;;;;;;12.31;61.32;98408.78;5126558;27;42160;-83
2023/03/30 00:28:33;;;;;;;2.97;2.23;;;;;;;12.32;61.60;98407.81;5093066;28;39895;-82
2023/03/30 00:31:01;;;;;;;2.50;1.90;;;;;;;12.34;61.83;98402.38;5093678;28;42414;-81
2023/03/30 00:33:29;;;;;;;2.40;1.73;;;;;;;12.37;61.93;98388.84;5109571;28;41990;-80
2023/03/30 00:35:58;;;;;;;3.20;2.07;;;;;;;12.37;62.02;98392.34;5092166;28;42194;-80
2023/03/30 00:38:27;;;;;;;3.27;2.07;;;;;;;12.32;61.95;98375.94;5109541;28;38558;-82
2023/03/30 00:40:57;;;;;;;2.53;1.87;;;;;;;12.27;62.16;98382.56;5109193;28;40679;-83
2023/03/30 00:43:26;;;;;;;3.47;1.90;;;;;;;12.23;61.86;98376.66;5123588;27;42798;-83
2023/03/30 00:45:56;;;;;;;3.30;2.10;;;;;;;12.11;61.70;98361.69;5126244;27;42283;-81
2023/03/30 00:48:27;;;;;;;3.87;2.10;;;;;;;12.26;61.78;98372.91;5092219;28;39801;-80
2023/03/30 00:50:58;;;;;;;3.63;2.20;;;;;;;12.29;61.27;98381.50;5109199;28;40553;-82
2023/03/30 00:53:28;;;;;;;3.50;2.13;;;;;;;12.23;61.72;98355.44;5109631;28;41784;-82
2023/03/30 00:55:57;;;;;;;2.90;1.87;;;;;;;12.36;61.86;98377.41;5091829;28;41247;-80
2023/03/30 00:58:25;;;;;;;4.60;2.03;;;;;;;12.42;61.71;98368.97;5074861;28;40236;-83
2023/03/30 01:00:57;;;;;;;3.73;2.13;;;;;;;12.42;63.26;98349.53;5125404;27;41572;-80
2023/03/30 01:03:28;;;;;;;2.97;2.40;;;;;;;12.44;62.94;98359.06;5088585;28;42981;-81
2023/03/30 01:05:58;;;;;;;3.87;2.23;;;;;;;12.45;62.59;98355.44;5123297;27;42863;-80
2023/03/30 01:08:31;;;;;;;2.40;2.20;;;;;;;12.43;62.47;98351.22;5108740;28;39548;-80
2023/03/30 01:11:00;;;;;;;4.30;2.40;;;;;;;12.34;62.40;98336.84;5122895;27;41653;-81
2023/03/30 01:13:29;;;;;;;5.93;2.20;;;;;;;12.36;63.13;98334.09;5077932;28;42901;-80
2023/03/30 01:16:09;;;;;;;3.97;2.07;;;;;;;12.33;62.64;98335.16;5079170;28;40971;-83
2023/03/30 01:18:48;;;;;;;3.80;2.73;;;;;;;12.30;63.18;98346.00;5080059;28;38578;-81
2023/03/30 01:21:58;;;;;;;4.53;2.90;;;;;;;12.28;63.18;98342.63;5111314;28;40642;-81
2023/03/30 01:24:57;;;;;;;3.80;2.30;;;;;;;12.23;63.38;98327.06;5096955;28;42997;-81
2023/03/30 01:28:04;;;;;;;2.90;2.27;;;;;;;12.20;63.99;98329.13;5096641;28;20231;-80
2023/03/30 01:30:48;;;;;;;3.97;2.77;;;;;;;12.14;64.84;98337.53;5075313;28;38948;-80
2023/03/30 01:33:37;;;;;;;4.87;2.40;;;;;;;12.10;64.31;98330.78;5091810;28;40916;-83
2023/03/30 01:36:43;;;;;;;3.30;2.43;;;;;;;12.05;65.40;98335.59;5088748;28;42757;-82
2023/03/30 01:39:32;;;;;;;2.57;2.20;;;;;;;12.01;64.55;98334.97;5067264;28;41334;-80
2023/03/30 01:42:09;;;;;;;3.10;2.20;;;;;;;11.99;64.73;98330.78;5135381;27;40406;-80
2023/03/30 01:44:44;;;;;;;3.93;2.40;;;;;;;11.99;64.85;98333.44;5079451;28;40773;-81
2023/03/30 01:47:19;;;;;;;4.07;2.20;;;;;;;11.97;64.90;98322.94;5091250;28;42986;-81
2023/03/30 01:49:56;;;;;;;3.53;1.97;;;;;;;11.99;65.04;98325.47;5074867;28;41062;-83
2023/03/30 01:52:27;;;;;;;5.00;2.00;;;;;;;12.06;64.56;98326.69;5074807;28;39126;-80
2023/03/30 01:55:03;;;;;;;3.70;1.70;;;;;;;12.13;64.05;98325.22;5108933;28;41139;-80
2023/03/30 01:57:35;;;;;;;3.50;2.30;;;;;;;12.12;64.56;98312.91;5074432;28;41650;-81
2023/03/30 02:00:12;;;;;;;4.00;1.90;;;;;;;12.20;64.21;98329.13;5109033;28;42327;-80
2023/03/30 02:02:44;;;;;;;2.80;1.57;;;;;;;12.18;64.16;98325.72;5091890;28;40798;-82
2023/03/30 02:05:16;;;;;;;3.20;1.93;;;;;;;12.22;63.96;98328.03;5123164;27;41709;-82
2023/03/30 02:07:49;;;;;;;5.80;2.00;;;;;;;12.27;63.79;98329.47;5091504;28;41817;-83
2023/03/30 02:10:21;;;;;;;3.73;1.70;;;;;;;12.30;63.49;98330.09;5088681;28;43219;-82
2023/03/30 02:12:52;;;;;;;2.17;1.70;;;;;;;12.11;63.43;98297.97;5074638;28;39161;-84
2023/03/30 02:15:20;;;;;;;4.00;1.80;;;;;;;12.31;63.38;98347.72;5091725;28;41189;-80
2023/03/30 02:17:48;;;;;;;2.80;1.57;;;;;;;12.29;63.15;98333.69;5107935;28;43172;-81
2023/03/30 02:20:17;;;;;;;2.93;1.60;;;;;;;12.40;62.89;98352.28;5091315;28;42569;-82
2023/03/30 02:22:46;;;;;;;4.53;1.73;;;;;;;12.36;63.03;98339.41;5074094;28;39064;-80
2023/03/30 02:25:14;;;;;;;5.50;1.80;;;;;;;12.47;63.22;98342.91;5073646;28;40832;-80
2023/03/30 02:27:43;;;;;;;5.43;2.27;;;;;;;12.51;63.43;98336.38;5091020;28;43837;-83
2023/03/30 02:30:15;;;;;;;6.00;2.07;;;;;;;12.52;63.66;98335.41;5077824;28;41037;-81
2023/03/30 02:32:48;;;;;;;5.40;2.13;;;;;;;12.61;63.15;98346.28;5077417;28;39160;-81
2023/03/30 02:35:30;;;;;;;3.80;1.80;;;;;;;12.67;63.43;98353.75;5077942;28;40594;-82
2023/03/30 02:38:22;;;;;;;4.20;1.87;;;;;;;12.58;63.54;98326.97;5077117;28;43020;-80
2023/03/30 02:41:00;;;;;;;3.53;1.73;;;;;;;12.71;63.51;98341.94;5091390;28;42214;-80
2023/03/30 02:43:38;;;;;;;3.07;1.90;;;;;;;12.76;63.73;98353.88;5091521;28;39886;-80
2023/03/30 02:46:25;;;;;;;2.83;1.37;;;;;;;12.84;63.71;98361.25;5091707;28;41763;-79
2023/03/30 02:49:01;;;;;;;3.13;2.10;;;;;;;12.80;63.32;98343.84;5111198;28;41804;-80
2023/03/30 02:51:41;;;;;;;6.93;1.97;;;;;;;12.86;63.23;98346.84;5076882;28;40822;-80
2023/03/30 02:54:37;;;;;;;5.23;2.00;;;;;;;13.03;63.21;98349.97;5093582;28;38848;-80
2023/03/30 02:57:51;;;;;;;3.93;1.93;;;;;;;13.17;62.58;98342.59;5093773;28;40697;-80
2023/03/30 03:00:45;;;;;;;4.43;1.90;;;;;;;13.26;62.01;98344.50;5094415;28;41540;-83
2023/03/30 03:03:23;;;;;;;4.43;2.17;;;;;;;13.33;61.81;98347.53;5092978;28;43160;-82
2023/03/30 03:05:54;;;;;;;3.70;1.90;;;;;;;13.37;62.14;98348.09;5077462;28;38754;-82
2023/03/30 03:08:32;;;;;;;6.17;1.70;;;;;;;13.42;61.65;98335.28;5076740;28;40562;-81
2023/03/30 03:11:01;;;;;;;5.10;2.47;;;;;;;13.36;61.90;98319.81;5110846;28;41507;-80
2023/03/30 03:13:31;;;;;;;6.50;2.40;;;;;;;13.51;61.79;98350.47;5093615;28;42166;-80
2023/03/30 03:16:02;;;;;;;4.03;1.87;;;;;;;13.56;61.32;98354.47;5093718;28;39599;-81
2023/03/30 03:18:33;;;;;;;5.33;2.13;;;;;;;13.63;61.17;98362.78;5110426;28;40984;-80
2023/03/30 03:21:02;;;;;;;5.83;2.50;;;;;;;13.68;60.97;98354.41;5076520;28;41688;-82
2023/03/30 03:23:30;;;;;;;5.87;2.00;;;;;;;13.80;60.77;98366.69;5076958;28;41427;-80
2023/03/30 03:25:59;;;;;;;3.67;1.90;;;;;;;13.82;60.45;98343.47;5110473;28;39981;-81
2023/03/30 03:28:27;;;;;;;6.57;2.00;;;;;;;13.83;60.32;98339.84;5076473;28;40602;-82
2023/03/30 03:31:02;;;;;;;7.63;2.40;;;;;;;13.94;60.48;98347.75;5077022;28;42993;-81
2023/03/30 03:33:32;;;;;;;10.53;2.33;;;;;;;13.96;60.64;98344.00;5076517;28;41262;-80
2023/03/30 03:36:07;;;;;;;6.57;2.07;;;;;;;13.90;60.52;98328.53;5076718;28;40451;-81
2023/03/30 03:38:40;;;;;;;4.90;2.03;;;;;;;13.73;60.76;98305.13;5091632;28;41785;-80
2023/03/30 03:41:08;;;;;;;6.80;2.07;;;;;;;13.77;61.33;98311.06;5093516;28;42687;-82
2023/03/30 03:43:37;;;;;;;4.47;2.20;;;;;;;13.86;61.21;98318.25;5076555;28;42054;-81
2023/03/30 03:46:06;;;;;;;5.03;2.23;;;;;;;13.86;61.65;98315.59;5093544;28;40068;-82
2023/03/30 03:48:34;;;;;;;9.73;3.10;;;;;;;13.84;61.52;98307.78;5110250;28;41902;-80
2023/03/30 03:51:02;;;;;;;6.57;2.13;;;;;;;13.88;61.48;98319.81;5110281;28;42764;-82
2023/03/30 03:53:34;;;;;;;5.27;2.27;;;;;;;13.81;61.20;98305.38;5125460;27;42294;-82
2023/03/30 03:56:07;;;;;;;4.93;2.00;;;;;;;13.98;61.12;98334.03;5076728;28;40074;-80
2023/03/30 03:58:35;;;;;;;4.33;1.90;;;;;;;14.05;60.84;98345.03;5076083;28;40550;-81
2023/03/30 04:01:03;;;;;;;5.73;2.17;;;;;;;14.01;60.57;98317.81;5075956;28;41693;-82
2023/03/30 04:03:32;;;;;;;7.03;2.10;;;;;;;14.16;60.83;98347.63;5075733;28;40897;-80
2023/03/30 04:06:01;;;;;;;3.67;1.93;;;;;;;14.17;60.91;98337.81;5075994;28;40216;-80
2023/03/30 04:08:29;;;;;;;8.87;2.50;;;;;;;14.11;62.25;98347.16;5092951;28;41842;-82
2023/03/30 04:11:07;;;;;;;8.17;2.57;;;;;;;13.97;63.13;98343.00;5109922;28;41993;-81
2023/03/30 04:13:48;;;;;;;4.33;2.13;;;;;;;13.80;65.32;98330.28;5109549;28;41301;-81
2023/03/30 04:16:40;;;;;;;6.23;2.00;;;;;;;13.65;69.11;98308.47;5092322;28;38837;-81
2023/03/30 04:19:38;;;;;;;8.37;2.50;;;;;;;13.54;68.16;98335.13;5126156;27;42752;-81
2023/03/30 04:22:32;;;;;;;5.83;2.13;;;;;;;13.50;68.57;98343.47;5095596;27;43800;-80
2023/03/30 04:25:26;;;;;;;3.77;2.03;;;;;;;13.49;67.84;98320.50;5092206;28;41169;-81
2023/03/30 04:28:06;;;;;;;7.10;2.33;;;;;;;13.43;70.54;98295.25;5075538;28;40319;-80
2023/03/30 04:30:40;;;;;;;6.13;2.67;;;;;;;13.34;72.47;98269.44;5093188;28;41983;-81
2023/03/30 04:33:27;;;;;;;7.20;2.60;;;;;;;13.27;72.47;98284.19;5094918;28;44131;-80
2023/03/30 04:36:17;;;;;;;9.43;2.60;;;;;;;13.24;74.42;98290.59;5123750;27;42015;-80
2023/03/30 04:39:00;;;;;;;9.90;3.20;;;;;;;13.18;74.84;98285.81;5125238;27;39906;-81
2023/03/30 04:41:46;;;;;;;7.07;3.00;;;;;;;13.19;73.87;98287.50;5092855;28;41161;-80
2023/03/30 04:44:25;;;;;;;6.63;2.30;;;;;;;13.21;73.70;98287.38;5125916;27;43795;-80
2023/03/30 04:47:09;;;;;;;8.43;2.90;;;;;;;13.19;75.96;98284.00;5109040;28;42302;-81
2023/03/30 04:49:54;;;;;;;11.30;2.90;;;;;;;13.20;75.98;98283.03;5127155;27;39118;-81
2023/03/30 04:52:41;;;;;;;11.73;3.40;;;;;;;13.20;75.34;98286.53;5089842;28;42764;-80
2023/03/30 04:55:12;;;;;;;9.37;2.93;;;;;;;13.17;77.40;98276.16;5090484;28;42775;-80
2023/03/30 04:57:59;;;;;;;10.67;2.97;;;;;;;13.35;75.47;98294.22;5092353;28;40855;-80
2023/03/30 05:00:45;;;;;;;9.20;3.13;;;;;;;13.42;74.78;98292.72;5092176;28;39080;-82
2023/03/30 05:03:33;;;;;;;6.73;2.83;;;;;;;13.34;74.27;98289.88;5091451;27;42748;-80
2023/03/30 05:06:10;;;;;;;7.57;3.53;;;;;;;13.48;74.05;98292.19;5075202;28;41955;-82
2023/03/30 05:09:06;;;;;;;6.77;2.73;;;;;;;13.55;74.13;98282.75;5089555;28;41397;-81
2023/03/30 05:11:53;;;;;;;9.23;2.67;;;;;;;13.56;74.60;98273.81;5092186;28;40402;-79
2023/03/30 05:14:41;;;;;;;11.73;3.67;;;;;;;13.59;75.13;98281.53;5070357;28;40796;-78
2023/03/30 05:17:28;;;;;;;7.47;2.70;;;;;;;13.55;74.73;98258.81;5091922;28;42108;-80
2023/03/30 05:20:07;;;;;;;9.23;4.23;;;;;;;13.59;74.99;98246.94;5074623;28;41409;-80
2023/03/30 05:22:46;;;;;;;9.40;3.57;;;;;;;13.73;74.57;98256.41;5089355;28;39953;-82
2023/03/30 05:25:34;;;;;;;11.90;3.13;;;;;;;13.83;73.84;98260.84;5091521;28;40993;-79
2023/03/30 05:28:36;;;;;;;7.83;3.50;;;;;;;13.86;74.11;98239.25;5108342;28;43006;-79
2023/03/30 05:31:30;;;;;;;6.73;2.27;;;;;;;13.76;75.41;98238.38;5088832;28;42133;-81
2023/03/30 05:34:21;;;;;;;8.10;3.00;;;;;;;13.69;76.40;98226.56;5088748;28;40913;-78
2023/03/30 05:36:54;;;;;;;5.33;2.47;;;;;;;13.57;76.21;98214.31;5108054;28;40314;-81
2023/03/30 05:39:49;;;;;;;6.07;3.07;;;;;;;13.66;76.09;98218.84;5091686;27;42317;-85
2023/03/30 05:42:38;;;;;;;9.70;2.60;;;;;;;13.66;76.53;98216.19;5089240;28;42251;-85
2023/03/30 05:45:25;;;;;;;8.03;3.07;;;;;;;13.66;75.91;98210.84;5091460;28;39604;-79
2023/03/30 05:48:25;;;;;;;6.67;2.97;;;;;;;13.74;75.66;98218.16;5090760;28;41820;-83
2023/03/30 05:51:08;;;;;;;4.97;2.47;;;;;;;13.70;74.93;98200.81;5108066;28;41627;-81
2023/03/30 05:53:48;;;;;;;7.50;2.57;;;;;;;13.85;75.07;98218.94;5074293;28;42500;-80
2023/03/30 05:56:36;;;;;;;8.27;2.80;;;;;;;13.89;74.30;98224.84;5091674;28;39726;-77
2023/03/30 05:59:23;;;;;;;8.10;2.53;;;;;;;13.91;74.63;98231.72;5124314;27;42426;-83
2023/03/30 06:02:07;;;;;;;7.67;2.83;;;;;;;13.94;74.31;98236.81;5123015;27;43320;-84
2023/03/30 06:04:35;;;;;;;6.47;2.37;;;;;;;13.98;74.33;98232.88;5128567;27;42356;-82
2023/03/30 06:07:03;;;;;;;9.70;2.93;;;;;;;14.01;74.93;98227.28;5094801;28;40095;-81
2023/03/30 06:09:31;;;;;;;9.60;3.43;;;;;;;14.04;75.08;98226.19;5077604;28;40792;-82
2023/03/30 06:12:01;;;;;;;5.77;3.37;;;;;;;14.08;74.50;98222.31;5128747;27;43777;-83
2023/03/30 06:14:32;;;;;;;7.00;3.30;;;;;;;14.10;74.47;98230.97;5128012;27;42759;-85
2023/03/30 06:17:22;;;;;;;9.70;3.60;;;;;;;14.13;74.66;98224.53;5125182;27;40890;-77
2023/03/30 06:19:49;;;;;;;8.40;2.47;;;;;;;14.13;74.59;98213.88;5111236;28;40787;-81
2023/03/30 06:22:18;;;;;;;10.70;3.30;;;;;;;14.20;74.09;98217.72;5111326;28;41540;-84
2023/03/30 06:25:07;;;;;;;10.97;3.53;;;;;;;14.25;74.05;98218.16;5092852;28;42178;-80
2023/03/30 06:27:36;;;;;;;8.60;2.80;;;;;;;14.32;73.91;98219.31;5111177;28;38624;-83
2023/03/30 06:30:08;;;;;;;6.90;2.63;;;;;;;14.37;73.36;98227.72;5111203;28;41265;-85
2023/03/30 06:32:37;;;;;;;7.20;3.17;;;;;;;14.43;73.16;98253.03;5094363;28;41519;-79
2023/03/30 06:35:19;;;;;;;11.70;3.70;;;;;;;14.36;72.79;98256.19;5111010;28;41130;-86
2023/03/30 06:37:47;;;;;;;8.90;2.83;;;;;;;14.34;72.73;98273.31;5111000;28;38621;-81
2023/03/30 06:40:16;;;;;;;6.07;2.63;;;;;;;14.37;73.72;98289.00;5094183;28;42621;-86
2023/03/30 06:42:47;;;;;;;7.57;2.60;;;;;;;14.33;73.62;98311.56;5090737;28;43592;-82
2023/03/30 06:45:43;;;;;;;7.30;3.13;;;;;;;14.23;75.14;98342.59;5094410;27;42033;-83
2023/03/30 06:48:11;;;;;;;7.73;3.00;;;;;;;14.14;75.49;98359.38;5094571;28;40934;-85
2023/03/30 06:50:40;;;;;;;9.23;4.07;;;;;;;14.07;76.67;98371.53;5076555;28;41781;-85
2023/03/30 06:53:35;;;;;;;7.37;3.03;;;;;;;13.93;78.06;98396.66;5093450;28;42541;-82
2023/03/30 06:56:02;;;;;;;13.97;3.63;;;;;;;13.80;79.55;98391.50;5110976;28;41526;-82
2023/03/30 06:58:37;;;;;;;8.97;3.07;;;;;;;13.73;80.49;98384.97;5111295;28;39105;-86
2023/03/30 07:01:15;;;;;;;12.17;3.23;;;;;;;13.69;80.48;98391.53;5094123;28;41947;-77
2023/03/30 07:04:22;;;;;;;5.80;3.00;;;;;;;13.72;80.31;98387.78;5092401;28;42833;-81
2023/03/30 07:07:08;;;;;;;10.10;3.33;;;;;;;13.76;79.97;98382.06;5089873;28;42096;-79
2023/03/30 07:09:36;;;;;;;7.40;3.10;;;;;;;13.83;79.70;98387.75;5067925;28;39013;-78
2023/03/30 07:12:04;;;;;;;11.80;4.00;;;;;;;13.82;80.33;98376.25;5127594;27;42604;-78
2023/03/30 07:14:32;;;;;;;10.33;3.60;;;;;;;13.89;79.98;98388.06;5092500;28;42697;-80
2023/03/30 07:17:01;;;;;;;6.53;3.20;;;;;;;13.89;80.73;98387.22;5127818;27;42276;-79
2023/03/30 07:19:29;;;;;;;5.53;3.23;;;;;;;13.85;80.67;98405.25;5092941;28;40683;-76
2023/03/30 07:21:57;;;;;;;6.63;3.30;;;;;;;13.84;80.75;98405.41;5128867;27;41746;-77
2023/03/30 07:24:29;;;;;;;7.20;2.70;;;;;;;13.84;80.57;98419.56;5136956;27;42938;-75
2023/03/30 07:26:58;;;;;;;10.17;3.27;;;;;;;13.76;80.63;98408.69;5118156;28;41354;-79
2023/03/30 07:29:27;;;;;;;8.13;3.03;;;;;;;13.79;81.93;98416.41;5127718;27;40013;-80
2023/03/30 07:31:56;;;;;;;7.90;3.63;;;;;;;13.62;82.58;98387.69;5131759;27;42658;-78
2023/03/30 07:34:25;;;;;;;8.77;3.80;;;;;;;13.70;83.29;98397.72;5079683;28;42194;-77
2023/03/30 07:36:55;;;;;;;9.10;3.77;;;;;;;13.68;84.36;98400.50;5126681;27;42532;-82
2023/03/30 07:39:27;;;;;;;8.20;3.00;;;;;;;13.68;84.64;98402.31;5130345;27;40969;-80
2023/03/30 07:41:55;;;;;;;5.40;2.87;;;;;;;13.68;84.62;98399.66;5077876;28;41140;-80
2023/03/30 07:44:27;;;;;;;7.77;3.57;;;;;;;13.66;85.86;98386.47;5076063;28;41999;-84
2023/03/30 07:46:56;;;;;;;8.03;3.10;;;;;;;13.64;87.62;98372.44;5090164;28;42357;-76
2023/03/30 07:49:28;;;;;;;9.63;3.40;;;;;;;13.60;86.47;98357.69;5127150;27;39950;-82
2023/03/30 07:51:55;;;;;;;11.07;5.50;;;;;;;13.60;88.01;98341.72;5126986;27;42698;-78
2023/03/30 07:54:44;;;;;;;9.30;3.70;;;;;;;13.59;90.20;98338.25;5088198;28;41698;-80
2023/03/30 07:57:17;;;;;;;9.00;3.27;;;;;;;13.66;89.91;98346.56;5124026;27;42605;-82
2023/03/30 07:59:45;;;;;;;6.53;3.03;;;;;;;13.73;90.58;98345.06;5109959;28;39605;-81
2023/03/30 08:02:31;;;;;;;8.43;2.80;;;;;;;13.78;90.31;98340.22;5094162;28;42569;-83
2023/03/30 08:05:02;;;;;;;9.67;3.00;;;;;;;13.86;89.13;98345.72;5126518;27;42459;-80
2023/03/30 08:07:40;;;;;;;6.70;2.60;;;;;;;14.04;88.75;98354.00;5127055;27;42473;-82
2023/03/30 08:10:20;;;;;;;7.47;2.50;;;;;;;14.06;88.27;98337.88;5110108;28;39107;-79
2023/03/30 08:12:48;;;;;;;7.20;2.73;;;;;;;14.31;88.49;98353.47;5092623;28;41933;-84
2023/03/30 08:15:16;;;;;;;7.87;2.67;;;;;;;14.41;88.02;98338.41;5109653;28;42766;-82
2023/03/30 08:17:43;;;;;;;6.60;2.83;;;;;;;14.46;89.18;98328.22;5126914;27;42256;-83
2023/03/30 08:20:13;;;;;;;11.13;3.50;;;;;;;14.45;89.13;98331.00;5092191;28;39415;-84
2023/03/30 08:22:41;;;;;;;8.33;2.70;;;;;;;14.39;89.27;98316.34;5109858;28;42383;-87
2023/03/30 08:25:10;;;;;;;7.80;2.77;;;;;;;14.46;89.44;98336.19;5108281;28;41696;-84
2023/03/30 08:27:38;;;;;;;6.50;2.97;;;;;;;14.44;89.56;98342.63;5091743;28;41425;-84
2023/03/30 08:30:07;;;;;;;9.57;3.23;;;;;;;14.46;89.39;98341.53;5093499;28;39925;-80
2023/03/30 08:32:35;;;;;;;10.10;3.67;;;;;;;14.39;89.01;98332.34;5093699;28;41594;-81
2023/03/30 08:35:03;;;;;;;8.30;2.90;;;;;;;14.34;88.66;98329.25;5091827;28;42734;-81
2023/03/30 08:37:32;;;;;;;6.87;3.00;;;;;;;14.41;88.73;98345.56;5093466;28;42184;-84
2023/03/30 08:40:00;;;;;;;8.20;2.80;;;;;;;14.42;88.32;98353.41;5108829;28;39679;-82
2023/03/30 08:42:50;;;;;;;5.60;2.57;;;;;;;14.18;88.67;98318.19;5093440;28;41945;-85
2023/03/30 08:45:18;;;;;;;10.13;3.53;;;;;;;14.29;88.78;98331.44;5074834;28;42058;-80
2023/03/30 08:47:50;;;;;;;8.13;3.27;;;;;;;14.21;90.65;98332.13;5092906;28;42281;-82
2023/03/30 08:50:25;;;;;;;10.80;3.27;;;;;;;14.29;90.88;98334.94;5074849;28;38782;-84
2023/03/30 08:52:55;;;;;;;12.17;3.63;;;;;;;14.26;91.24;98326.38;5091480;28;40853;-82
2023/03/30 08:55:26;;;;;;;8.70;3.27;;;;;;;14.24;91.93;98318.50;5091174;28;41653;-81
2023/03/30 08:57:59;;;;;;;7.47;3.27;;;;;;;14.09;92.62;98287.91;5090087;28;43230;-79
2023/03/30 09:00:37;;;;;;;7.67;3.70;;;;;;;14.13;94.14;98240.53;5090106;28;40016;-79
2023/03/30 09:03:16;;;;;;;9.67;3.63;;;;;;;14.19;94.68;98218.69;5089557;28;41774;-79
2023/03/30 09:05:49;;;;;;;9.37;3.97;;;;;;;14.43;94.34;98247.69;5091895;28;41985;-80
2023/03/30 09:08:21;;;;;;;8.10;3.50;;;;;;;14.65;93.04;98263.47;5123159;27;43194;-80
2023/03/30 09:10:54;;;;;;;7.33;3.67;;;;;;;14.86;92.71;98309.53;5091653;28;40261;-77
2023/03/30 09:13:26;;;;;;;7.70;3.33;;;;;;;15.05;91.23;98303.44;5091096;28;41613;-77
2023/03/30 09:15:58;;;;;;;10.17;3.67;;;;;;;15.21;90.37;98287.72;5089388;28;42726;-81
2023/03/30 09:18:30;;;;;;;6.63;2.93;;;;;;;15.35;89.09;98289.97;5091315;28;41978;-80
2023/03/30 09:21:00;;;;;;;8.17;3.07;;;;;;;15.39;88.17;98294.06;5091210;28;39462;-79
2023/03/30 09:23:31;;;;;;;6.23;3.03;;;;;;;15.51;87.73;98313.44;5090886;28;42861;-83
2023/03/30 09:26:08;;;;;;;7.00;3.43;;;;;;;15.82;86.38;98330.22;5090559;28;43181;-82
2023/03/30 09:28:44;;;;;;;12.83;4.00;;;;;;;16.22;84.88;98337.16;5090312;28;42164;-82
2023/03/30 09:31:17;;;;;;;5.53;2.83;;;;;;;16.53;83.51;98344.81;5122262;27;40414;-78
2023/03/30 09:33:47;;;;;;;5.83;3.37;;;;;;;16.71;81.23;98344.06;5123686;27;42647;-78
2023/03/30 09:36:16;;;;;;;11.07;4.00;;;;;;;16.87;80.44;98345.13;5090817;28;41625;-78
2023/03/30 09:38:46;;;;;;;6.03;3.03;;;;;;;17.52;79.48;98329.81;5124736;27;42294;-81
2023/03/30 09:41:29;;;;;;;7.07;2.93;;;;;;;18.07;76.69;98329.66;5107846;28;39389;-79
2023/03/30 09:43:59;;;;;;;7.13;3.40;;;;;;;17.97;76.88;98328.91;5073863;28;40973;-82
2023/03/30 09:46:27;;;;;;;4.40;2.67;;;;;;;17.77;75.21;98330.94;5073865;28;42376;-80
2023/03/30 09:49:12;;;;;;;5.07;2.90;;;;;;;17.67;74.87;98332.84;5090240;28;41515;-81
2023/03/30 09:51:54;;;;;;;4.63;3.07;;;;;;;17.68;74.46;98339.06;5091901;28;40946;-80
2023/03/30 09:54:25;;;;;;;5.00;2.60;;;;;;;17.65;74.34;98345.53;5090377;28;40976;-81
2023/03/30 09:56:55;;;;;;;6.10;3.30;;;;;;;17.41;74.41;98326.53;5125048;27;43113;-81
2023/03/30 09:59:30;;;;;;;6.43;2.80;;;;;;;17.32;73.71;98344.31;5107340;28;41420;-78
2023/03/30 10:02:19;;;;;;;4.03;2.60;;;;;;;16.77;73.91;98311.41;5090826;28;39907;-81
2023/03/30 10:05:17;;;;;;;4.83;2.93;;;;;;;17.05;74.50;98345.22;5073147;28;40783;-82
2023/03/30 10:07:53;;;;;;;4.87;2.50;;;;;;;17.29;73.62;98354.50;5082410;28;43928;-80
2023/03/30 10:10:32;;;;;;;4.63;2.40;;;;;;;17.66;72.51;98344.56;5107781;28;41270;-79
2023/03/30 10:13:07;;;;;;;3.57;2.33;;;;;;;17.99;71.60;98343.00;5122204;27;39964;-80
2023/03/30 10:15:39;;;;;;;4.50;2.47;;;;;;;18.41;68.16;98358.41;5091554;28;42132;-80
2023/03/30 10:18:24;;;;;;;4.93;2.40;;;;;;;18.44;68.04;98341.97;5121736;27;43744;-80
2023/03/30 10:20:53;;;;;;;3.63;2.07;;;;;;;18.41;68.24;98332.44;5107658;28;42200;-79
2023/03/30 10:23:23;;;;;;;5.60;2.67;;;;;;;18.63;67.40;98347.16;5073395;28;38973;-80
2023/03/30 10:26:02;;;;;;;5.20;2.40;;;;;;;18.63;67.12;98336.44;5090076;28;41791;-78
2023/03/30 10:28:32;;;;;;;4.77;2.40;;;;;;;18.57;66.43;98343.22;5122196;27;43063;-78
2023/03/30 10:31:04;;;;;;;6.13;2.80;;;;;;;18.63;66.79;98336.44;5124176;27;42391;-78
2023/03/30 10:33:39;;;;;;;4.27;2.70;;;;;;;18.69;66.17;98330.41;5124148;27;39906;-79
2023/03/30 10:36:08;;;;;;;3.87;2.33;;;;;;;18.70;65.60;98326.75;5073565;28;40488;-78
2023/03/30 10:38:37;;;;;;;8.10;3.03;;;;;;;18.61;65.66;98316.97;5090040;28;42838;-78
2023/03/30 10:41:12;;;;;;;5.47;2.60;;;;;;;18.67;65.64;98332.41;5089895;28;43394;-79
2023/03/30 10:43:40;;;;;;;3.83;2.43;;;;;;;18.65;65.06;98339.81;5073390;28;39223;-78
2023/03/30 10:46:13;;;;;;;3.07;2.50;;;;;;;18.81;64.69;98329.13;5091109;28;43018;-82
2023/03/30 10:48:56;;;;;;;4.50;2.60;;;;;;;18.91;63.90;98345.97;5089205;28;43578;-80
2023/03/30 10:51:35;;;;;;;3.87;2.70;;;;;;;18.97;63.05;98323.84;5076450;28;41402;-79
2023/03/30 10:54:11;;;;;;;4.03;2.50;;;;;;;19.11;62.52;98322.41;5075909;28;38688;-80
2023/03/30 10:56:45;;;;;;;5.30;2.53;;;;;;;19.03;63.12;98290.19;5076788;28;40808;-81
2023/03/30 10:59:25;;;;;;;4.00;3.10;;;;;;;19.40;62.17;98316.63;5092709;28;43833;-79
2023/03/30 11:02:15;;;;;;;3.97;2.60;;;;;;;20.04;60.31;98323.06;5091201;28;42920;-78
2023/03/30 11:04:46;;;;;;;5.23;2.20;;;;;;;20.99;58.11;98340.22;5092353;28;41143;-80
2023/03/30 11:07:20;;;;;;;4.10;2.27;;;;;;;21.27;55.47;98338.78;5110244;28;40386;-80
2023/03/30 11:13:21;;;;;;;5.23;2.47;;;;;;;21.84;53.64;98357.31;5075734;28;41502;-79
2023/03/30 11:15:52;;;;;;;4.03;2.60;;;;;;;22.34;51.14;98358.63;5124163;27;39921;-80
2023/03/30 11:18:24;;;;;;;4.57;2.90;;;;;;;22.54;50.74;98365.16;5075560;28;41084;-78
2023/03/30 11:20:59;;;;;;;6.60;2.87;;;;;;;22.63;51.22;98341.63;5089541;28;42715;-82
2023/03/30 11:23:39;;;;;;;4.17;2.30;;;;;;;23.00;49.74;98376.69;5075916;28;41062;-78
2023/03/30 11:26:10;;;;;;;7.00;2.93;;;;;;;23.49;48.71;98373.41;5093849;28;39958;-78
2023/03/30 11:28:53;;;;;;;4.90;2.20;;;;;;;24.33;47.52;98351.03;5090924;28;42295;-81
2023/03/30 11:31:32;;;;;;;5.63;2.50;;;;;;;25.72;44.70;98387.09;5090802;28;42703;-83
2023/03/30 11:34:07;;;;;;;4.87;2.30;;;;;;;27.32;41.92;98395.13;5090960;28;43268;-78
2023/03/30 11:36:39;;;;;;;3.27;2.27;;;;;;;28.44;37.94;98419.09;5090798;28;39979;-80
2023/03/30 11:39:13;;;;;;;3.27;2.17;;;;;;;28.57;37.02;98416.25;5091696;28;40902;-80
2023/03/30 11:41:45;;;;;;;3.93;2.60;;;;;;;27.59;38.28;98418.50;5090196;28;42635;-83
2023/03/30 11:44:15;;;;;;;3.93;2.30;;;;;;;26.73;39.02;98402.31;5092291;28;43138;-79
2023/03/30 11:46:51;;;;;;;4.97;2.13;;;;;;;25.50;40.83;98382.81;5093817;28;39697;-79
2023/03/30 11:49:53;;;;;;;3.70;2.33;;;;;;;24.58;42.62;98364.13;5091736;28;41680;-81
2023/03/30 11:52:30;;;;;;;4.10;2.40;;;;;;;24.47;42.97;98373.63;5075770;28;42276;-79
2023/03/30 11:55:23;;;;;;;4.23;2.27;;;;;;;25.06;41.58;98400.31;5092401;28;43835;-79
2023/03/30 11:58:04;;;;;;;3.87;2.40;;;;;;;24.42;41.03;98391.47;5126829;27;39700;-81
2023/03/30 12:00:43;;;;;;;2.87;2.00;;;;;;;23.68;43.39;98370.09;5123430;27;42006;-78
2023/03/30 12:03:29;;;;;;;4.23;2.00;;;;;;;23.33;43.71;98370.91;5090851;28;43873;-78
2023/03/30 12:06:11;;;;;;;4.27;2.10;;;;;;;23.67;42.34;98368.44;5092207;28;43064;-80
2023/03/30 12:09:20;;;;;;;5.30;2.10;;;;;;;23.09;43.30;98375.59;5091113;28;40013;-80
2023/03/30 12:11:53;;;;;;;3.97;1.90;;;;;;;23.08;43.64;98360.41;5089830;28;41784;-84
2023/03/30 12:14:41;;;;;;;4.23;2.13;;;;;;;23.07;43.85;98350.63;5091584;28;43605;-77
2023/03/30 12:17:24;;;;;;;4.93;2.50;;;;;;;24.08;42.68;98360.56;5090669;28;42218;-79